^^
Daily Summary for June 08, 2021 Units:  Both    English   Metric
Daily Weekly Monthly Yearly Custom
  High: Low: Average:
Temperature: 72.0 °F /  22.2 °C 46.0 °F /  7.8 °C 58.2 °F /  14.6 °C
Dew Point: 41.0 °F /  5 °C 34.0 °F /  1.1 °C 38.2 °F /  3.4 °C
Humidity: 75% 26% 51%
Wind Speed: 21mph /  33.8km/h - 8.7mph /  14km/h
Wind Gust: 21mph /  33.8km/h - -
Wind- - South
Pressure: 30.1 in /  1019.2 hPa 29.9 in /  1012.4 hPa -
Precipitation: 0.000 in /  0 mm    
Historical Graphs
 
 
Tabular Data for June 08, 2021
Time Temperature Dew Point Pressure Wind Wind Speed Wind Gust Humidity Rainfall Rate (Hourly) solar
00:04 54.0 °F /  12.2 °C 38.0 °F /  3.3 °C 29.9in /  1012.4hPa East 4mph /  6.4km/h 6mph /  9.7km/h 56% 0.000in /  0mm 0.00 W/m2
00:09 53.0 °F /  11.7 °C 38.0 °F /  3.3 °C 29.9in /  1012.4hPa ESE 6mph /  9.7km/h 3mph /  4.8km/h 56% 0.000in /  0mm 0.00 W/m2
00:14 53.0 °F /  11.7 °C 38.0 °F /  3.3 °C 29.9in /  1012.4hPa ESE 7mph /  11.3km/h 6mph /  9.7km/h 56% 0.000in /  0mm 0.00 W/m2
00:19 53.0 °F /  11.7 °C 39.0 °F /  3.9 °C 29.9in /  1012.4hPa East 6mph /  9.7km/h 7mph /  11.3km/h 58% 0.000in /  0mm 0.00 W/m2
00:24 53.0 °F /  11.7 °C 39.0 °F /  3.9 °C 29.9in /  1012.4hPa South 7mph /  11.3km/h 6mph /  9.7km/h 58% 0.000in /  0mm 0.00 W/m2
00:29 53.0 °F /  11.7 °C 39.0 °F /  3.9 °C 29.9in /  1012.4hPa ESE 6mph /  9.7km/h 7mph /  11.3km/h 58% 0.000in /  0mm 0.00 W/m2
00:34 53.0 °F /  11.7 °C 39.0 °F /  3.9 °C 29.9in /  1012.4hPa SE 9mph /  14.5km/h 2mph /  3.2km/h 58% 0.000in /  0mm 0.00 W/m2
00:39 53.0 °F /  11.7 °C 39.0 °F /  3.9 °C 30.0in /  1015.8hPa East 9mph /  14.5km/h 9mph /  14.5km/h 59% 0.000in /  0mm 0.00 W/m2
00:44 53.0 °F /  11.7 °C 39.0 °F /  3.9 °C 30.0in /  1015.8hPa Calm   3mph /  4.8km/h 59% 0.000in /  0mm 0.00 W/m2
00:49 53.0 °F /  11.7 °C 38.0 °F /  3.3 °C 30.0in /  1015.8hPa SE 5mph /  8km/h 2mph /  3.2km/h 58% 0.000in /  0mm 0.00 W/m2
00:54 53.0 °F /  11.7 °C 38.0 °F /  3.3 °C 30.0in /  1015.8hPa SE 6mph /  9.7km/h 6mph /  9.7km/h 58% 0.000in /  0mm 0.00 W/m2
00:59 53.0 °F /  11.7 °C 39.0 °F /  3.9 °C 30.0in /  1015.8hPa SE 2mph /  3.2km/h 6mph /  9.7km/h 59% 0.000in /  0mm 0.00 W/m2
01:04 52.0 °F /  11.1 °C 39.0 °F /  3.9 °C 30.0in /  1015.8hPa Calm   2mph /  3.2km/h 60% 0.000in /  0mm 0.00 W/m2
01:09 52.0 °F /  11.1 °C 39.0 °F /  3.9 °C 30.0in /  1015.8hPa SSE 4mph /  6.4km/h 1mph /  1.6km/h 60% 0.000in /  0mm 0.00 W/m2
01:14 52.0 °F /  11.1 °C 39.0 °F /  3.9 °C 30.0in /  1015.8hPa ESE 6mph /  9.7km/h 3mph /  4.8km/h 60% 0.000in /  0mm 0.00 W/m2
01:19 52.0 °F /  11.1 °C 39.0 °F /  3.9 °C 30.0in /  1015.8hPa Calm   6mph /  9.7km/h 60% 0.000in /  0mm 0.00 W/m2
01:23 52.0 °F /  11.1 °C 38.0 °F /  3.3 °C 30.0in /  1015.8hPa East 2mph /  3.2km/h   59% 0.000in /  0mm 0.00 W/m2
01:29 52.0 °F /  11.1 °C 38.0 °F /  3.3 °C 30.0in /  1015.8hPa Calm   2mph /  3.2km/h 60% 0.000in /  0mm 0.00 W/m2
01:34 52.0 °F /  11.1 °C 38.0 °F /  3.3 °C 30.0in /  1015.8hPa ESE 5mph /  8km/h   60% 0.000in /  0mm 0.00 W/m2
01:39 52.0 °F /  11.1 °C 38.0 °F /  3.3 °C 30.0in /  1015.8hPa SE 6mph /  9.7km/h 6mph /  9.7km/h 60% 0.000in /  0mm 0.00 W/m2
01:44 51.0 °F /  10.6 °C 38.0 °F /  3.3 °C 30.0in /  1015.8hPa SE 2mph /  3.2km/h 2mph /  3.2km/h 61% 0.000in /  0mm 0.00 W/m2
01:49 51.0 °F /  10.6 °C 38.0 °F /  3.3 °C 30.0in /  1015.8hPa SE 2mph /  3.2km/h 2mph /  3.2km/h 61% 0.000in /  0mm 0.00 W/m2
01:54 51.0 °F /  10.6 °C 38.0 °F /  3.3 °C 30.0in /  1015.8hPa ESE 4mph /  6.4km/h 2mph /  3.2km/h 61% 0.000in /  0mm 0.00 W/m2
01:59 51.0 °F /  10.6 °C 38.0 °F /  3.3 °C 30.0in /  1015.8hPa ESE 4mph /  6.4km/h 3mph /  4.8km/h 62% 0.000in /  0mm 0.00 W/m2
02:04 51.0 °F /  10.6 °C 38.0 °F /  3.3 °C 30.0in /  1015.8hPa ESE 7mph /  11.3km/h 4mph /  6.4km/h 62% 0.000in /  0mm 0.00 W/m2
02:09 51.0 °F /  10.6 °C 38.0 °F /  3.3 °C 30.0in /  1015.8hPa East 9mph /  14.5km/h 7mph /  11.3km/h 63% 0.000in /  0mm 0.00 W/m2
02:14 50.0 °F /  10 °C 38.0 °F /  3.3 °C 30.0in /  1015.8hPa SSE 4mph /  6.4km/h 9mph /  14.5km/h 63% 0.000in /  0mm 0.00 W/m2
02:19 50.0 °F /  10 °C 38.0 °F /  3.3 °C 30.0in /  1015.8hPa ESE 4mph /  6.4km/h 3mph /  4.8km/h 64% 0.000in /  0mm 0.00 W/m2
02:24 50.0 °F /  10 °C 38.0 °F /  3.3 °C 30.0in /  1015.8hPa East 6mph /  9.7km/h 3mph /  4.8km/h 64% 0.000in /  0mm 0.00 W/m2
02:29 50.0 °F /  10 °C 38.0 °F /  3.3 °C 30.0in /  1015.8hPa South 4mph /  6.4km/h 6mph /  9.7km/h 65% 0.000in /  0mm 0.00 W/m2
02:34 50.0 °F /  10 °C 38.0 °F /  3.3 °C 30.0in /  1015.8hPa South 4mph /  6.4km/h 3mph /  4.8km/h 65% 0.000in /  0mm 0.00 W/m2
02:39 50.0 °F /  10 °C 38.0 °F /  3.3 °C 30.0in /  1015.8hPa South 2mph /  3.2km/h 3mph /  4.8km/h 65% 0.000in /  0mm 0.00 W/m2
02:44 49.0 °F /  9.4 °C 38.0 °F /  3.3 °C 30.0in /  1015.8hPa SE 4mph /  6.4km/h 3mph /  4.8km/h 65% 0.000in /  0mm 0.00 W/m2
02:49 49.0 °F /  9.4 °C 38.0 °F /  3.3 °C 30.0in /  1015.8hPa SE 4mph /  6.4km/h 2mph /  3.2km/h 65% 0.000in /  0mm 0.00 W/m2
02:54 49.0 °F /  9.4 °C 38.0 °F /  3.3 °C 30.0in /  1015.8hPa East 11mph /  17.7km/h 5mph /  8km/h 66% 0.000in /  0mm 0.00 W/m2
02:59 49.0 °F /  9.4 °C 38.0 °F /  3.3 °C 30.0in /  1015.8hPa SSE 7mph /  11.3km/h 10mph /  16.1km/h 66% 0.000in /  0mm 0.00 W/m2
03:04 49.0 °F /  9.4 °C 38.0 °F /  3.3 °C 30.0in /  1015.8hPa SE 11mph /  17.7km/h 7mph /  11.3km/h 66% 0.000in /  0mm 0.00 W/m2
03:09 49.0 °F /  9.4 °C 38.0 °F /  3.3 °C 30.0in /  1015.8hPa SSE 4mph /  6.4km/h 10mph /  16.1km/h 66% 0.000in /  0mm 0.00 W/m2
03:14 49.0 °F /  9.4 °C 38.0 °F /  3.3 °C 30.0in /  1015.8hPa Calm   3mph /  4.8km/h 67% 0.000in /  0mm 0.00 W/m2
03:19 49.0 °F /  9.4 °C 38.0 °F /  3.3 °C 30.0in /  1015.8hPa East 2mph /  3.2km/h 2mph /  3.2km/h 68% 0.000in /  0mm 0.00 W/m2
03:24 49.0 °F /  9.4 °C 39.0 °F /  3.9 °C 30.0in /  1015.8hPa East 2mph /  3.2km/h 1mph /  1.6km/h 69% 0.000in /  0mm 0.00 W/m2
03:29 49.0 °F /  9.4 °C 38.0 °F /  3.3 °C 30.0in /  1015.8hPa SE 4mph /  6.4km/h 2mph /  3.2km/h 68% 0.000in /  0mm 0.00 W/m2
03:34 49.0 °F /  9.4 °C 39.0 °F /  3.9 °C 30.0in /  1015.8hPa SSW 4mph /  6.4km/h 3mph /  4.8km/h 69% 0.000in /  0mm 0.00 W/m2
03:39 48.0 °F /  8.9 °C 38.0 °F /  3.3 °C 30.0in /  1015.8hPa SE 4mph /  6.4km/h 3mph /  4.8km/h 67% 0.000in /  0mm 0.00 W/m2
03:44 48.0 °F /  8.9 °C 38.0 °F /  3.3 °C 30.0in /  1015.8hPa ESE 4mph /  6.4km/h 1mph /  1.6km/h 67% 0.000in /  0mm 0.00 W/m2
03:49 48.0 °F /  8.9 °C 38.0 °F /  3.3 °C 30.0in /  1015.8hPa ESE 2mph /  3.2km/h 3mph /  4.8km/h 68% 0.000in /  0mm 0.00 W/m2
03:54 48.0 °F /  8.9 °C 38.0 °F /  3.3 °C 30.0in /  1015.8hPa Calm   2mph /  3.2km/h 68% 0.000in /  0mm 0.00 W/m2
03:59 48.0 °F /  8.9 °C 38.0 °F /  3.3 °C 30.0in /  1015.8hPa East 4mph /  6.4km/h 1mph /  1.6km/h 68% 0.000in /  0mm 0.00 W/m2
04:04 48.0 °F /  8.9 °C 38.0 °F /  3.3 °C 30.0in /  1015.8hPa East 4mph /  6.4km/h 3mph /  4.8km/h 68% 0.000in /  0mm 0.00 W/m2
04:09 48.0 °F /  8.9 °C 38.0 °F /  3.3 °C 30.0in /  1015.8hPa SSE 2mph /  3.2km/h 2mph /  3.2km/h 68% 0.000in /  0mm 0.00 W/m2
04:14 48.0 °F /  8.9 °C 38.0 °F /  3.3 °C 30.0in /  1015.8hPa Calm   2mph /  3.2km/h 68% 0.000in /  0mm 0.00 W/m2
04:19 48.0 °F /  8.9 °C 38.0 °F /  3.3 °C 30.0in /  1015.8hPa SSE 2mph /  3.2km/h   67% 0.000in /  0mm 0.00 W/m2
04:24 48.0 °F /  8.9 °C 38.0 °F /  3.3 °C 30.0in /  1015.8hPa Calm     67% 0.000in /  0mm 0.00 W/m2
04:29 48.0 °F /  8.9 °C 37.0 °F /  2.8 °C 30.0in /  1015.8hPa Calm     67% 0.000in /  0mm 0.00 W/m2
04:34 48.0 °F /  8.9 °C 37.0 °F /  2.8 °C 30.0in /  1015.8hPa SE 2mph /  3.2km/h 1mph /  1.6km/h 67% 0.000in /  0mm 0.00 W/m2
04:39 48.0 °F /  8.9 °C 38.0 °F /  3.3 °C 30.0in /  1015.8hPa SE 2mph /  3.2km/h 2mph /  3.2km/h 68% 0.000in /  0mm 0.00 W/m2
04:44 48.0 °F /  8.9 °C 37.0 °F /  2.8 °C 30.0in /  1015.8hPa Calm   2mph /  3.2km/h 67% 0.000in /  0mm 0.00 W/m2
04:49 48.0 °F /  8.9 °C 38.0 °F /  3.3 °C 30.0in /  1015.8hPa Calm     68% 0.000in /  0mm 0.00 W/m2
04:54 48.0 °F /  8.9 °C 38.0 °F /  3.3 °C 30.0in /  1015.8hPa SE 2mph /  3.2km/h   68% 0.000in /  0mm 0.00 W/m2
04:59 48.0 °F /  8.9 °C 37.0 °F /  2.8 °C 30.0in /  1015.8hPa SE 2mph /  3.2km/h 2mph /  3.2km/h 67% 0.000in /  0mm 0.00 W/m2
05:04 47.0 °F /  8.3 °C 37.0 °F /  2.8 °C 30.0in /  1015.8hPa SE 4mph /  6.4km/h 1mph /  1.6km/h 67% 0.000in /  0mm 0.00 W/m2
05:09 47.0 °F /  8.3 °C 37.0 °F /  2.8 °C 30.0in /  1015.8hPa SE 4mph /  6.4km/h 3mph /  4.8km/h 68% 0.000in /  0mm 0.00 W/m2
05:14 47.0 °F /  8.3 °C 37.0 °F /  2.8 °C 30.0in /  1015.8hPa Calm   2mph /  3.2km/h 69% 0.000in /  0mm 0.00 W/m2
05:19 47.0 °F /  8.3 °C 37.0 °F /  2.8 °C 30.0in /  1015.8hPa Calm     69% 0.000in /  0mm 0.00 W/m2
05:24 47.0 °F /  8.3 °C 37.0 °F /  2.8 °C 30.0in /  1015.8hPa Calm     69% 0.000in /  0mm 0.00 W/m2
05:29 47.0 °F /  8.3 °C 37.0 °F /  2.8 °C 30.0in /  1015.8hPa Calm     69% 0.000in /  0mm 0.00 W/m2
05:34 47.0 °F /  8.3 °C 37.0 °F /  2.8 °C 30.0in /  1015.8hPa Calm     69% 0.000in /  0mm 0.00 W/m2
05:39 47.0 °F /  8.3 °C 37.0 °F /  2.8 °C 30.0in /  1015.8hPa SE 2mph /  3.2km/h   69% 0.000in /  0mm 0.00 W/m2
05:44 46.0 °F /  7.8 °C 37.0 °F /  2.8 °C 30.0in /  1015.8hPa SE 2mph /  3.2km/h 2mph /  3.2km/h 70% 0.000in /  0mm 0.00 W/m2
05:49 46.0 °F /  7.8 °C 37.0 °F /  2.8 °C 30.0in /  1015.8hPa SE 4mph /  6.4km/h 2mph /  3.2km/h 70% 0.000in /  0mm 0.00 W/m2
05:54 46.0 °F /  7.8 °C 38.0 °F /  3.3 °C 30.0in /  1015.8hPa ESE 7mph /  11.3km/h 3mph /  4.8km/h 73% 0.000in /  0mm 5.00 W/m2
05:59 46.0 °F /  7.8 °C 38.0 °F /  3.3 °C 30.0in /  1015.8hPa SE 4mph /  6.4km/h 7mph /  11.3km/h 72% 0.000in /  0mm 5.00 W/m2
06:04 46.0 °F /  7.8 °C 37.0 °F /  2.8 °C 30.0in /  1015.8hPa SE 4mph /  6.4km/h 3mph /  4.8km/h 72% 0.000in /  0mm 7.00 W/m2
06:09 46.0 °F /  7.8 °C 38.0 °F /  3.3 °C 30.0in /  1015.8hPa Calm   3mph /  4.8km/h 73% 0.000in /  0mm 9.00 W/m2
06:14 46.0 °F /  7.8 °C 38.0 °F /  3.3 °C 30.0in /  1015.8hPa Calm     74% 0.000in /  0mm 9.00 W/m2
06:19 46.0 °F /  7.8 °C 37.0 °F /  2.8 °C 30.0in /  1015.8hPa Calm     72% 0.000in /  0mm 11.00 W/m2
06:24 46.0 °F /  7.8 °C 37.0 °F /  2.8 °C 30.0in /  1015.8hPa Calm     72% 0.000in /  0mm 12.00 W/m2
06:29 46.0 °F /  7.8 °C 37.0 °F /  2.8 °C 30.0in /  1015.8hPa SE 2mph /  3.2km/h   73% 0.000in /  0mm 14.00 W/m2
06:34 46.0 °F /  7.8 °C 37.0 °F /  2.8 °C 30.0in /  1015.8hPa ESE 5mph /  8km/h 2mph /  3.2km/h 73% 0.000in /  0mm 14.00 W/m2
06:39 46.0 °F /  7.8 °C 38.0 °F /  3.3 °C 30.0in /  1015.8hPa ESE 6mph /  9.7km/h 6mph /  9.7km/h 74% 0.000in /  0mm 16.00 W/m2
06:44 46.0 °F /  7.8 °C 38.0 °F /  3.3 °C 30.0in /  1015.8hPa ESE 6mph /  9.7km/h 3mph /  4.8km/h 74% 0.000in /  0mm 18.00 W/m2
06:49 46.0 °F /  7.8 °C 38.0 °F /  3.3 °C 30.0in /  1015.8hPa ESE 7mph /  11.3km/h 6mph /  9.7km/h 73% 0.000in /  0mm 18.00 W/m2
06:54 46.0 °F /  7.8 °C 38.0 °F /  3.3 °C 30.0in /  1015.8hPa ESE 7mph /  11.3km/h 7mph /  11.3km/h 75% 0.000in /  0mm 19.00 W/m2
06:59 46.0 °F /  7.8 °C 38.0 °F /  3.3 °C 30.0in /  1015.8hPa East 7mph /  11.3km/h 7mph /  11.3km/h 75% 0.000in /  0mm 21.00 W/m2
07:04 46.0 °F /  7.8 °C 38.0 °F /  3.3 °C 30.0in /  1015.8hPa ESE 7mph /  11.3km/h 6mph /  9.7km/h 74% 0.000in /  0mm 19.00 W/m2
07:09 46.0 °F /  7.8 °C 38.0 °F /  3.3 °C 30.1in /  1019.2hPa ESE 7mph /  11.3km/h 7mph /  11.3km/h 73% 0.000in /  0mm 21.00 W/m2
07:14 46.0 °F /  7.8 °C 39.0 °F /  3.9 °C 30.1in /  1019.2hPa East 16mph /  25.7km/h 7mph /  11.3km/h 74% 0.000in /  0mm 21.00 W/m2
07:19 47.0 °F /  8.3 °C 39.0 °F /  3.9 °C 30.1in /  1019.2hPa ESE 11mph /  17.7km/h 16mph /  25.7km/h 74% 0.000in /  0mm 23.00 W/m2
07:24 47.0 °F /  8.3 °C 39.0 °F /  3.9 °C 30.1in /  1019.2hPa East 9mph /  14.5km/h 10mph /  16.1km/h 74% 0.000in /  0mm 23.00 W/m2
07:29 47.0 °F /  8.3 °C 39.0 °F /  3.9 °C 30.1in /  1019.2hPa ESE 7mph /  11.3km/h 9mph /  14.5km/h 73% 0.000in /  0mm 23.00 W/m2
07:34 47.0 °F /  8.3 °C 39.0 °F /  3.9 °C 30.1in /  1019.2hPa ESE 9mph /  14.5km/h 7mph /  11.3km/h 73% 0.000in /  0mm 25.00 W/m2
07:39 47.0 °F /  8.3 °C 39.0 °F /  3.9 °C 30.1in /  1019.2hPa ESE 13mph /  20.9km/h 9mph /  14.5km/h 72% 0.000in /  0mm 26.00 W/m2
07:44 48.0 °F /  8.9 °C 39.0 °F /  3.9 °C 30.1in /  1019.2hPa SE 9mph /  14.5km/h 13mph /  20.9km/h 72% 0.000in /  0mm 28.00 W/m2
07:49 48.0 °F /  8.9 °C 40.0 °F /  4.4 °C 30.1in /  1019.2hPa NE 4mph /  6.4km/h 9mph /  14.5km/h 73% 0.000in /  0mm 30.00 W/m2
07:54 48.0 °F /  8.9 °C 40.0 °F /  4.4 °C 30.1in /  1019.2hPa NNW 4mph /  6.4km/h 3mph /  4.8km/h 73% 0.000in /  0mm 63.00 W/m2
07:59 48.0 °F /  8.9 °C 40.0 °F /  4.4 °C 30.1in /  1019.2hPa ESE 7mph /  11.3km/h 3mph /  4.8km/h 72% 0.000in /  0mm 32.00 W/m2
08:04 49.0 °F /  9.4 °C 39.0 °F /  3.9 °C 30.1in /  1019.2hPa East 11mph /  17.7km/h 7mph /  11.3km/h 71% 0.000in /  0mm 33.00 W/m2
08:09 49.0 °F /  9.4 °C 40.0 °F /  4.4 °C 30.1in /  1019.2hPa SE 6mph /  9.7km/h 10mph /  16.1km/h 70% 0.000in /  0mm 40.00 W/m2
08:14 49.0 °F /  9.4 °C 40.0 °F /  4.4 °C 30.1in /  1019.2hPa East 11mph /  17.7km/h 6mph /  9.7km/h 70% 0.000in /  0mm 120.00 W/m2
08:19 50.0 °F /  10 °C 40.0 °F /  4.4 °C 30.1in /  1019.2hPa ESE 9mph /  14.5km/h 10mph /  16.1km/h 69% 0.000in /  0mm 109.00 W/m2
08:24 50.0 °F /  10 °C 40.0 °F /  4.4 °C 30.1in /  1019.2hPa SE 13mph /  20.9km/h 8mph /  12.9km/h 68% 0.000in /  0mm 81.00 W/m2
08:29 51.0 °F /  10.6 °C 40.0 °F /  4.4 °C 30.1in /  1019.2hPa SSE 4mph /  6.4km/h 13mph /  20.9km/h 67% 0.000in /  0mm 104.00 W/m2
08:34 51.0 °F /  10.6 °C 40.0 °F /  4.4 °C 30.1in /  1019.2hPa SW 9mph /  14.5km/h 3mph /  4.8km/h 67% 0.000in /  0mm 533.00 W/m2
08:39 51.0 °F /  10.6 °C 40.0 °F /  4.4 °C 30.1in /  1019.2hPa South 7mph /  11.3km/h 9mph /  14.5km/h 67% 0.000in /  0mm 547.00 W/m2
08:44 52.0 °F /  11.1 °C 40.0 °F /  4.4 °C 30.1in /  1019.2hPa SW 2mph /  3.2km/h 6mph /  9.7km/h 65% 0.000in /  0mm 568.00 W/m2
08:49 53.0 °F /  11.7 °C 40.0 °F /  4.4 °C 30.1in /  1019.2hPa East 13mph /  20.9km/h 9mph /  14.5km/h 64% 0.000in /  0mm 580.00 W/m2
08:54 53.0 °F /  11.7 °C 39.0 °F /  3.9 °C 30.1in /  1019.2hPa East 13mph /  20.9km/h 13mph /  20.9km/h 60% 0.000in /  0mm 580.00 W/m2
08:59 54.0 °F /  12.2 °C 40.0 °F /  4.4 °C 30.1in /  1019.2hPa SSE 6mph /  9.7km/h 9mph /  14.5km/h 59% 0.000in /  0mm 613.00 W/m2
09:04 54.0 °F /  12.2 °C 40.0 °F /  4.4 °C 30.1in /  1019.2hPa SE 14mph /  22.5km/h 14mph /  22.5km/h 59% 0.000in /  0mm 629.00 W/m2
09:09 55.0 °F /  12.8 °C 40.0 °F /  4.4 °C 30.1in /  1019.2hPa SSW 6mph /  9.7km/h 9mph /  14.5km/h 59% 0.000in /  0mm 645.00 W/m2
09:14 55.0 °F /  12.8 °C 40.0 °F /  4.4 °C 30.1in /  1019.2hPa SSW 6mph /  9.7km/h 6mph /  9.7km/h 57% 0.000in /  0mm 657.00 W/m2
09:19 55.0 °F /  12.8 °C 40.0 °F /  4.4 °C 30.1in /  1019.2hPa NE 16mph /  25.7km/h 6mph /  9.7km/h 57% 0.000in /  0mm 670.00 W/m2
09:24 56.0 °F /  13.3 °C 40.0 °F /  4.4 °C 30.1in /  1019.2hPa SSE 11mph /  17.7km/h 16mph /  25.7km/h 56% 0.000in /  0mm 687.00 W/m2
09:29 56.0 °F /  13.3 °C 40.0 °F /  4.4 °C 30.1in /  1019.2hPa SW 9mph /  14.5km/h 10mph /  16.1km/h 56% 0.000in /  0mm 701.00 W/m2
09:34 56.0 °F /  13.3 °C 40.0 °F /  4.4 °C 30.1in /  1019.2hPa WNW 12mph /  19.3km/h 9mph /  14.5km/h 55% 0.000in /  0mm 715.00 W/m2
09:39 57.0 °F /  13.9 °C 41.0 °F /  5 °C 30.1in /  1019.2hPa NNE 19mph /  30.6km/h 13mph /  20.9km/h 56% 0.000in /  0mm 728.00 W/m2
09:44 57.0 °F /  13.9 °C 41.0 °F /  5 °C 30.1in /  1019.2hPa WSW 20mph /  32.2km/h 20mph /  32.2km/h 55% 0.000in /  0mm 740.00 W/m2
09:49 58.0 °F /  14.4 °C 40.0 °F /  4.4 °C 30.1in /  1019.2hPa SW 17mph /  27.4km/h 17mph /  27.4km/h 52% 0.000in /  0mm 752.00 W/m2
09:54 58.0 °F /  14.4 °C 39.0 °F /  3.9 °C 30.1in /  1019.2hPa SSW 18mph /  29km/h 17mph /  27.4km/h 50% 0.000in /  0mm 765.00 W/m2
09:59 58.0 °F /  14.4 °C 40.0 °F /  4.4 °C 30.1in /  1019.2hPa West 7mph /  11.3km/h 9mph /  14.5km/h 51% 0.000in /  0mm 775.00 W/m2
10:04 58.0 °F /  14.4 °C 39.0 °F /  3.9 °C 30.1in /  1019.2hPa SSW 21mph /  33.8km/h 9mph /  14.5km/h 48% 0.000in /  0mm 788.00 W/m2
10:09 59.0 °F /  15 °C 40.0 °F /  4.4 °C 30.1in /  1019.2hPa SSE 7mph /  11.3km/h 21mph /  33.8km/h 49% 0.000in /  0mm 800.00 W/m2
10:14 59.0 °F /  15 °C 40.0 °F /  4.4 °C 30.1in /  1019.2hPa SSW 11mph /  17.7km/h 9mph /  14.5km/h 49% 0.000in /  0mm 812.00 W/m2
10:19 59.0 °F /  15 °C 38.0 °F /  3.3 °C 30.1in /  1019.2hPa WSW 11mph /  17.7km/h 10mph /  16.1km/h 46% 0.000in /  0mm 821.00 W/m2
10:24 59.0 °F /  15 °C 39.0 °F /  3.9 °C 30.1in /  1019.2hPa SW 16mph /  25.7km/h 14mph /  22.5km/h 46% 0.000in /  0mm 821.00 W/m2
10:29 60.0 °F /  15.6 °C 39.0 °F /  3.9 °C 30.1in /  1019.2hPa SSW 13mph /  20.9km/h 16mph /  25.7km/h 46% 0.000in /  0mm 846.00 W/m2
10:34 60.0 °F /  15.6 °C 39.0 °F /  3.9 °C 30.1in /  1019.2hPa South 11mph /  17.7km/h 13mph /  20.9km/h 47% 0.000in /  0mm 856.00 W/m2
10:39 61.0 °F /  16.1 °C 41.0 °F /  5 °C 30.1in /  1019.2hPa South 13mph /  20.9km/h 10mph /  16.1km/h 48% 0.000in /  0mm 865.00 W/m2
10:44 61.0 °F /  16.1 °C 40.0 °F /  4.4 °C 30.1in /  1019.2hPa ESE 7mph /  11.3km/h 13mph /  20.9km/h 46% 0.000in /  0mm 875.00 W/m2
10:49 61.0 °F /  16.1 °C 40.0 °F /  4.4 °C 30.1in /  1019.2hPa West 9mph /  14.5km/h 7mph /  11.3km/h 45% 0.000in /  0mm 888.00 W/m2
10:54 62.0 °F /  16.7 °C 40.0 °F /  4.4 °C 30.1in /  1019.2hPa SSE 16mph /  25.7km/h 9mph /  14.5km/h 45% 0.000in /  0mm 896.00 W/m2
10:59 62.0 °F /  16.7 °C 39.0 °F /  3.9 °C 30.1in /  1019.2hPa South 9mph /  14.5km/h 16mph /  25.7km/h 42% 0.000in /  0mm 905.00 W/m2
11:04 63.0 °F /  17.2 °C 40.0 °F /  4.4 °C 30.1in /  1019.2hPa SE 14mph /  22.5km/h 9mph /  14.5km/h 43% 0.000in /  0mm 912.00 W/m2
11:09 63.0 °F /  17.2 °C 40.0 °F /  4.4 °C 30.1in /  1019.2hPa SSW 11mph /  17.7km/h 14mph /  22.5km/h 43% 0.000in /  0mm 919.00 W/m2
11:13 63.0 °F /  17.2 °C 40.0 °F /  4.4 °C 30.1in /  1019.2hPa ESE 13mph /  20.9km/h 12mph /  19.3km/h 43% 0.000in /  0mm 928.00 W/m2
11:19 64.0 °F /  17.8 °C 40.0 °F /  4.4 °C 30.1in /  1019.2hPa ESE 9mph /  14.5km/h 13mph /  20.9km/h 43% 0.000in /  0mm 935.00 W/m2
11:24 64.0 °F /  17.8 °C 39.0 °F /  3.9 °C 30.1in /  1019.2hPa WSW 13mph /  20.9km/h 9mph /  14.5km/h 41% 0.000in /  0mm 939.00 W/m2
11:29 64.0 °F /  17.8 °C 39.0 °F /  3.9 °C 30.1in /  1019.2hPa WSW 13mph /  20.9km/h 13mph /  20.9km/h 40% 0.000in /  0mm 946.00 W/m2
11:34 64.0 °F /  17.8 °C 39.0 °F /  3.9 °C 30.1in /  1019.2hPa West 16mph /  25.7km/h 16mph /  25.7km/h 40% 0.000in /  0mm 951.00 W/m2
11:39 63.0 °F /  17.2 °C 39.0 °F /  3.9 °C 30.1in /  1019.2hPa SW 7mph /  11.3km/h 16mph /  25.7km/h 41% 0.000in /  0mm 960.00 W/m2
11:44 64.0 °F /  17.8 °C 40.0 °F /  4.4 °C 30.1in /  1019.2hPa East 13mph /  20.9km/h 8mph /  12.9km/h 42% 0.000in /  0mm 965.00 W/m2
11:49 64.0 °F /  17.8 °C 39.0 °F /  3.9 °C 30.1in /  1019.2hPa ESE 10mph /  16.1km/h 13mph /  20.9km/h 40% 0.000in /  0mm 965.00 W/m2
11:54 64.0 °F /  17.8 °C 39.0 °F /  3.9 °C 30.1in /  1019.2hPa SE 13mph /  20.9km/h 9mph /  14.5km/h 40% 0.000in /  0mm 974.00 W/m2
11:59 65.0 °F /  18.3 °C 39.0 °F /  3.9 °C 30.1in /  1019.2hPa NNW 7mph /  11.3km/h 13mph /  20.9km/h 39% 0.000in /  0mm 974.00 W/m2
12:04 65.0 °F /  18.3 °C 40.0 °F /  4.4 °C 30.1in /  1019.2hPa SW 9mph /  14.5km/h 8mph /  12.9km/h 40% 0.000in /  0mm 981.00 W/m2
12:09 65.0 °F /  18.3 °C 38.0 °F /  3.3 °C 30.1in /  1019.2hPa SW 20mph /  32.2km/h 14mph /  22.5km/h 37% 0.000in /  0mm 984.00 W/m2
12:14 65.0 °F /  18.3 °C 39.0 °F /  3.9 °C 30.1in /  1019.2hPa South 11mph /  17.7km/h 20mph /  32.2km/h 39% 0.000in /  0mm 986.00 W/m2
12:19 65.0 °F /  18.3 °C 39.0 °F /  3.9 °C 30.1in /  1019.2hPa SW 16mph /  25.7km/h 16mph /  25.7km/h 38% 0.000in /  0mm 988.00 W/m2
12:24 65.0 °F /  18.3 °C 39.0 °F /  3.9 °C 30.1in /  1019.2hPa WSW 14mph /  22.5km/h 14mph /  22.5km/h 38% 0.000in /  0mm 990.00 W/m2
12:29 66.0 °F /  18.9 °C 40.0 °F /  4.4 °C 30.1in /  1019.2hPa SSW 9mph /  14.5km/h 14mph /  22.5km/h 40% 0.000in /  0mm 990.00 W/m2
12:34 66.0 °F /  18.9 °C 40.0 °F /  4.4 °C 30.1in /  1019.2hPa West 16mph /  25.7km/h 14mph /  22.5km/h 39% 0.000in /  0mm 995.00 W/m2
12:39 66.0 °F /  18.9 °C 40.0 °F /  4.4 °C 30.1in /  1019.2hPa SSW 13mph /  20.9km/h 16mph /  25.7km/h 38% 0.000in /  0mm 990.00 W/m2
12:44 66.0 °F /  18.9 °C 39.0 °F /  3.9 °C 30.1in /  1019.2hPa WNW 21mph /  33.8km/h 15mph /  24.1km/h 37% 0.000in /  0mm 990.00 W/m2
12:49 66.0 °F /  18.9 °C 39.0 °F /  3.9 °C 30.1in /  1019.2hPa South 11mph /  17.7km/h 21mph /  33.8km/h 37% 0.000in /  0mm 997.00 W/m2
12:54 66.0 °F /  18.9 °C 39.0 °F /  3.9 °C 30.1in /  1019.2hPa West 16mph /  25.7km/h 13mph /  20.9km/h 36% 0.000in /  0mm 991.00 W/m2
12:59 67.0 °F /  19.4 °C 39.0 °F /  3.9 °C 30.1in /  1019.2hPa SW 13mph /  20.9km/h 16mph /  25.7km/h 36% 0.000in /  0mm 990.00 W/m2
13:04 67.0 °F /  19.4 °C 39.0 °F /  3.9 °C 30.1in /  1019.2hPa WSW 16mph /  25.7km/h 13mph /  20.9km/h 36% 0.000in /  0mm 988.00 W/m2
13:09 67.0 °F /  19.4 °C 39.0 °F /  3.9 °C 30.1in /  1019.2hPa WSW 16mph /  25.7km/h 16mph /  25.7km/h 36% 0.000in /  0mm 990.00 W/m2
13:14 67.0 °F /  19.4 °C 39.0 °F /  3.9 °C 30.1in /  1019.2hPa WSW 16mph /  25.7km/h 16mph /  25.7km/h 36% 0.000in /  0mm 991.00 W/m2
13:19 67.0 °F /  19.4 °C 38.0 °F /  3.3 °C 30.1in /  1019.2hPa West 14mph /  22.5km/h 16mph /  25.7km/h 35% 0.000in /  0mm 984.00 W/m2
13:24 67.0 °F /  19.4 °C 38.0 °F /  3.3 °C 30.1in /  1019.2hPa WSW 18mph /  29km/h 14mph /  22.5km/h 34% 0.000in /  0mm 983.00 W/m2
13:29 67.0 °F /  19.4 °C 39.0 °F /  3.9 °C 30.1in /  1019.2hPa South 14mph /  22.5km/h 17mph /  27.4km/h 36% 0.000in /  0mm 981.00 W/m2
13:34 67.0 °F /  19.4 °C 40.0 °F /  4.4 °C 30.1in /  1019.2hPa SSW 21mph /  33.8km/h 14mph /  22.5km/h 37% 0.000in /  0mm 976.00 W/m2
13:39 67.0 °F /  19.4 °C 38.0 °F /  3.3 °C 30.1in /  1019.2hPa West 7mph /  11.3km/h 21mph /  33.8km/h 34% 0.000in /  0mm 976.00 W/m2
13:44 68.0 °F /  20 °C 40.0 °F /  4.4 °C 30.1in /  1019.2hPa West 11mph /  17.7km/h 7mph /  11.3km/h 36% 0.000in /  0mm 965.00 W/m2
13:49 68.0 °F /  20 °C 40.0 °F /  4.4 °C 30.1in /  1019.2hPa SSW 9mph /  14.5km/h 10mph /  16.1km/h 36% 0.000in /  0mm 963.00 W/m2
13:54 68.0 °F /  20 °C 40.0 °F /  4.4 °C 30.1in /  1019.2hPa West 20mph /  32.2km/h 15mph /  24.1km/h 35% 0.000in /  0mm 962.00 W/m2
13:59 68.0 °F /  20 °C 39.0 °F /  3.9 °C 30.1in /  1019.2hPa SW 10mph /  16.1km/h 20mph /  32.2km/h 34% 0.000in /  0mm 956.00 W/m2
14:04 69.0 °F /  20.6 °C 38.0 °F /  3.3 °C 30.1in /  1019.2hPa West 13mph /  20.9km/h 12mph /  19.3km/h 33% 0.000in /  0mm 947.00 W/m2
14:09 69.0 °F /  20.6 °C 39.0 °F /  3.9 °C 30.1in /  1019.2hPa WSW 21mph /  33.8km/h 13mph /  20.9km/h 34% 0.000in /  0mm 939.00 W/m2
14:14 69.0 °F /  20.6 °C 38.0 °F /  3.3 °C 30.1in /  1019.2hPa SW 13mph /  20.9km/h 21mph /  33.8km/h 33% 0.000in /  0mm 939.00 W/m2
14:19 69.0 °F /  20.6 °C 38.0 °F /  3.3 °C 30.1in /  1019.2hPa SW 13mph /  20.9km/h 13mph /  20.9km/h 33% 0.000in /  0mm 925.00 W/m2
14:24 69.0 °F /  20.6 °C 38.0 °F /  3.3 °C 30.1in /  1019.2hPa WSW 11mph /  17.7km/h 13mph /  20.9km/h 33% 0.000in /  0mm 923.00 W/m2
14:29 69.0 °F /  20.6 °C 39.0 °F /  3.9 °C 30.1in /  1019.2hPa SW 16mph /  25.7km/h 10mph /  16.1km/h 33% 0.000in /  0mm 914.00 W/m2
14:34 69.0 °F /  20.6 °C 39.0 °F /  3.9 °C 30.1in /  1019.2hPa SSW 18mph /  29km/h 16mph /  25.7km/h 33% 0.000in /  0mm 905.00 W/m2
14:39 70.0 °F /  21.1 °C 40.0 °F /  4.4 °C 30.1in /  1019.2hPa WSW 20mph /  32.2km/h 17mph /  27.4km/h 34% 0.000in /  0mm 891.00 W/m2
14:44 69.0 °F /  20.6 °C 37.0 °F /  2.8 °C 30.1in /  1019.2hPa SW 18mph /  29km/h 20mph /  32.2km/h 31% 0.000in /  0mm 889.00 W/m2
14:49 69.0 °F /  20.6 °C 39.0 °F /  3.9 °C 30.1in /  1019.2hPa SW 16mph /  25.7km/h 17mph /  27.4km/h 33% 0.000in /  0mm 879.00 W/m2
14:54 70.0 °F /  21.1 °C 38.0 °F /  3.3 °C 30.1in /  1019.2hPa SSW 11mph /  17.7km/h 10mph /  16.1km/h 32% 0.000in /  0mm 875.00 W/m2
14:59 70.0 °F /  21.1 °C 39.0 °F /  3.9 °C 30.1in /  1019.2hPa ESE 9mph /  14.5km/h 6mph /  9.7km/h 33% 0.000in /  0mm 863.00 W/m2
15:04 70.0 °F /  21.1 °C 38.0 °F /  3.3 °C 30.1in /  1019.2hPa South 11mph /  17.7km/h 9mph /  14.5km/h 31% 0.000in /  0mm 851.00 W/m2
15:09 71.0 °F /  21.7 °C 40.0 °F /  4.4 °C 30.1in /  1019.2hPa SSW 9mph /  14.5km/h 10mph /  16.1km/h 33% 0.000in /  0mm 844.00 W/m2
15:14 71.0 °F /  21.7 °C 38.0 °F /  3.3 °C 30.1in /  1019.2hPa SW 18mph /  29km/h 13mph /  20.9km/h 30% 0.000in /  0mm 830.00 W/m2
15:19 71.0 °F /  21.7 °C 39.0 °F /  3.9 °C 30.1in /  1019.2hPa East 5mph /  8km/h 17mph /  27.4km/h 31% 0.000in /  0mm 817.00 W/m2
15:24 71.0 °F /  21.7 °C 39.0 °F /  3.9 °C 30.1in /  1019.2hPa South 16mph /  25.7km/h 6mph /  9.7km/h 31% 0.000in /  0mm 812.00 W/m2
15:29 72.0 °F /  22.2 °C 39.0 °F /  3.9 °C 30.1in /  1019.2hPa ESE 11mph /  17.7km/h 16mph /  25.7km/h 30% 0.000in /  0mm 800.00 W/m2
15:34 72.0 °F /  22.2 °C 39.0 °F /  3.9 °C 30.1in /  1019.2hPa NE 7mph /  11.3km/h 10mph /  16.1km/h 30% 0.000in /  0mm 786.00 W/m2
15:39 72.0 °F /  22.2 °C 39.0 °F /  3.9 °C 30.1in /  1019.2hPa SE 11mph /  17.7km/h 8mph /  12.9km/h 30% 0.000in /  0mm 773.00 W/m2
15:44 72.0 °F /  22.2 °C 37.0 °F /  2.8 °C 30.1in /  1019.2hPa WSW 21mph /  33.8km/h 15mph /  24.1km/h 28% 0.000in /  0mm 766.00 W/m2
15:49 72.0 °F /  22.2 °C 37.0 °F /  2.8 °C 30.1in /  1019.2hPa West 20mph /  32.2km/h 21mph /  33.8km/h 28% 0.000in /  0mm 751.00 W/m2
15:54 71.0 °F /  21.7 °C 37.0 °F /  2.8 °C 30.1in /  1019.2hPa WSW 16mph /  25.7km/h 16mph /  25.7km/h 28% 0.000in /  0mm 737.00 W/m2
15:59 71.0 °F /  21.7 °C 36.0 °F /  2.2 °C 30.1in /  1019.2hPa SSW 16mph /  25.7km/h 13mph /  20.9km/h 28% 0.000in /  0mm 722.00 W/m2
16:04 71.0 °F /  21.7 °C 37.0 °F /  2.8 °C 30.1in /  1019.2hPa WSW 7mph /  11.3km/h 16mph /  25.7km/h 29% 0.000in /  0mm 708.00 W/m2
16:09 72.0 °F /  22.2 °C 38.0 °F /  3.3 °C 30.1in /  1019.2hPa SE 11mph /  17.7km/h 9mph /  14.5km/h 29% 0.000in /  0mm 694.00 W/m2
16:14 72.0 °F /  22.2 °C 37.0 °F /  2.8 °C 30.1in /  1019.2hPa SE 13mph /  20.9km/h 10mph /  16.1km/h 28% 0.000in /  0mm 679.00 W/m2
16:19 72.0 °F /  22.2 °C 36.0 °F /  2.2 °C 30.1in /  1019.2hPa WSW 9mph /  14.5km/h 13mph /  20.9km/h 27% 0.000in /  0mm 668.00 W/m2
16:24 72.0 °F /  22.2 °C 36.0 °F /  2.2 °C 30.1in /  1019.2hPa WSW 11mph /  17.7km/h 9mph /  14.5km/h 27% 0.000in /  0mm 654.00 W/m2
16:29 71.0 °F /  21.7 °C 35.0 °F /  1.7 °C 30.1in /  1019.2hPa SW 13mph /  20.9km/h 10mph /  16.1km/h 26% 0.000in /  0mm 638.00 W/m2
16:34 71.0 °F /  21.7 °C 37.0 °F /  2.8 °C 30.1in /  1019.2hPa NW 11mph /  17.7km/h 13mph /  20.9km/h 29% 0.000in /  0mm 622.00 W/m2
16:39 71.0 °F /  21.7 °C 36.0 °F /  2.2 °C 30.1in /  1019.2hPa West 9mph /  14.5km/h 10mph /  16.1km/h 28% 0.000in /  0mm 605.00 W/m2
16:44 71.0 °F /  21.7 °C 36.0 °F /  2.2 °C 30.1in /  1019.2hPa SW 11mph /  17.7km/h 9mph /  14.5km/h 28% 0.000in /  0mm 592.00 W/m2
16:49 71.0 °F /  21.7 °C 36.0 °F /  2.2 °C 30.1in /  1019.2hPa SSW 13mph /  20.9km/h 10mph /  16.1km/h 28% 0.000in /  0mm 575.00 W/m2
16:54 71.0 °F /  21.7 °C 36.0 °F /  2.2 °C 30.1in /  1019.2hPa East 7mph /  11.3km/h 13mph /  20.9km/h 28% 0.000in /  0mm 563.00 W/m2
16:59 71.0 °F /  21.7 °C 35.0 °F /  1.7 °C 30.1in /  1019.2hPa SW 9mph /  14.5km/h 7mph /  11.3km/h 27% 0.000in /  0mm 550.00 W/m2
17:04 71.0 °F /  21.7 °C 36.0 °F /  2.2 °C 30.1in /  1019.2hPa SW 9mph /  14.5km/h 9mph /  14.5km/h 27% 0.000in /  0mm 538.00 W/m2
17:09 71.0 °F /  21.7 °C 36.0 °F /  2.2 °C 30.1in /  1019.2hPa NNW 11mph /  17.7km/h 8mph /  12.9km/h 27% 0.000in /  0mm 517.00 W/m2
17:14 72.0 °F /  22.2 °C 35.0 °F /  1.7 °C 30.1in /  1019.2hPa WSW 11mph /  17.7km/h 10mph /  16.1km/h 26% 0.000in /  0mm 503.00 W/m2
17:19 72.0 °F /  22.2 °C 36.0 °F /  2.2 °C 30.1in /  1019.2hPa SSE 6mph /  9.7km/h 10mph /  16.1km/h 27% 0.000in /  0mm 489.00 W/m2
17:24 72.0 °F /  22.2 °C 36.0 °F /  2.2 °C 30.1in /  1019.2hPa WSW 11mph /  17.7km/h 9mph /  14.5km/h 27% 0.000in /  0mm 471.00 W/m2
17:29 71.0 °F /  21.7 °C 35.0 °F /  1.7 °C 30.1in /  1019.2hPa West 16mph /  25.7km/h 11mph /  17.7km/h 26% 0.000in /  0mm 454.00 W/m2
17:33 71.0 °F /  21.7 °C 34.0 °F /  1.1 °C 30.1in /  1019.2hPa WSW 13mph /  20.9km/h 16mph /  25.7km/h 26% 0.000in /  0mm 436.00 W/m2
17:39 71.0 °F /  21.7 °C 35.0 °F /  1.7 °C 30.1in /  1019.2hPa SW 21mph /  33.8km/h 13mph /  20.9km/h 27% 0.000in /  0mm 422.00 W/m2
17:44 70.0 °F /  21.1 °C 34.0 °F /  1.1 °C 30.1in /  1019.2hPa WSW 11mph /  17.7km/h 21mph /  33.8km/h 27% 0.000in /  0mm 406.00 W/m2
17:49 70.0 °F /  21.1 °C 35.0 °F /  1.7 °C 30.1in /  1019.2hPa SW 9mph /  14.5km/h 9mph /  14.5km/h 28% 0.000in /  0mm 390.00 W/m2
17:54 70.0 °F /  21.1 °C 35.0 °F /  1.7 °C 30.1in /  1019.2hPa WSW 11mph /  17.7km/h 9mph /  14.5km/h 28% 0.000in /  0mm 374.00 W/m2
17:59 69.0 °F /  20.6 °C 36.0 °F /  2.2 °C 30.1in /  1019.2hPa West 9mph /  14.5km/h 10mph /  16.1km/h 30% 0.000in /  0mm 359.00 W/m2
18:04 69.0 °F /  20.6 °C 35.0 °F /  1.7 °C 30.1in /  1019.2hPa SW 11mph /  17.7km/h 9mph /  14.5km/h 29% 0.000in /  0mm 141.00 W/m2
18:09 68.0 °F /  20 °C 35.0 °F /  1.7 °C 30.1in /  1019.2hPa WSW 11mph /  17.7km/h 10mph /  16.1km/h 29% 0.000in /  0mm 60.00 W/m2
18:14 68.0 °F /  20 °C 36.0 °F /  2.2 °C 30.1in /  1019.2hPa SE 6mph /  9.7km/h 10mph /  16.1km/h 31% 0.000in /  0mm 47.00 W/m2
18:19 67.0 °F /  19.4 °C 36.0 °F /  2.2 °C 30.1in /  1019.2hPa ESE 13mph /  20.9km/h 6mph /  9.7km/h 32% 0.000in /  0mm 46.00 W/m2
18:24 67.0 °F /  19.4 °C 37.0 °F /  2.8 °C 30.1in /  1019.2hPa SSE 9mph /  14.5km/h 13mph /  20.9km/h 33% 0.000in /  0mm 42.00 W/m2
18:29 67.0 °F /  19.4 °C 36.0 °F /  2.2 °C 30.1in /  1019.2hPa SSW 9mph /  14.5km/h 9mph /  14.5km/h 32% 0.000in /  0mm 39.00 W/m2
18:34 66.0 °F /  18.9 °C 36.0 °F /  2.2 °C 30.1in /  1019.2hPa SW 7mph /  11.3km/h 9mph /  14.5km/h 33% 0.000in /  0mm 35.00 W/m2
18:39 66.0 °F /  18.9 °C 36.0 °F /  2.2 °C 30.1in /  1019.2hPa WSW 9mph /  14.5km/h 7mph /  11.3km/h 34% 0.000in /  0mm 32.00 W/m2
18:44 65.0 °F /  18.3 °C 36.0 °F /  2.2 °C 30.1in /  1019.2hPa WSW 11mph /  17.7km/h 9mph /  14.5km/h 34% 0.000in /  0mm 44.00 W/m2
18:49 65.0 °F /  18.3 °C 36.0 °F /  2.2 °C 30.1in /  1019.2hPa WSW 7mph /  11.3km/h 10mph /  16.1km/h 34% 0.000in /  0mm 51.00 W/m2
18:54 65.0 °F /  18.3 °C 36.0 °F /  2.2 °C 30.1in /  1019.2hPa SW 6mph /  9.7km/h 7mph /  11.3km/h 34% 0.000in /  0mm 63.00 W/m2
18:59 65.0 °F /  18.3 °C 36.0 °F /  2.2 °C 30.1in /  1019.2hPa SW 9mph /  14.5km/h 6mph /  9.7km/h 35% 0.000in /  0mm 39.00 W/m2
19:04 64.0 °F /  17.8 °C 36.0 °F /  2.2 °C 30.1in /  1019.2hPa SSW 7mph /  11.3km/h 9mph /  14.5km/h 35% 0.000in /  0mm 35.00 W/m2
19:09 64.0 °F /  17.8 °C 36.0 °F /  2.2 °C 30.1in /  1019.2hPa South 9mph /  14.5km/h 9mph /  14.5km/h 35% 0.000in /  0mm 25.00 W/m2
19:14 64.0 °F /  17.8 °C 36.0 °F /  2.2 °C 30.1in /  1019.2hPa South 11mph /  17.7km/h 9mph /  14.5km/h 36% 0.000in /  0mm 21.00 W/m2
El Dorado Weather
Compliments of Weather Underground - 2 mb